TimeMDT,TemperatureF,Dew PointF,Humidity,Sea Level PressureIn,VisibilityMPH,Wind Direction,Wind SpeedMPH,Gust SpeedMPH,PrecipitationIn,Events,Conditions,WindDirDegrees,DateUTC
12:53 AM,57.0,42.1,57,29.94,10.0,South,11.5,-,N/A,,Clear,180,2013-08-19 06:53:00
1:53 AM,55.9,42.1,60,29.97,10.0,South,8.1,-,N/A,,Clear,180,2013-08-19 07:53:00
2:53 AM,52.0,42.1,69,29.99,10.0,SSE,11.5,-,N/A,,Clear,150,2013-08-19 08:53:00
3:53 AM,53.1,41.0,64,29.96,10.0,SSE,10.4,-,N/A,,Clear,160,2013-08-19 09:53:00
4:53 AM,53.1,39.9,61,29.97,10.0,SSE,3.5,-,N/A,,Clear,160,2013-08-19 10:53:00
5:53 AM,50.0,39.0,66,30.00,10.0,SE,9.2,-,N/A,,Partly Cloudy,140,2013-08-19 11:53:00
6:53 AM,52.0,41.0,66,30.01,10.0,SSE,10.4,-,N/A,,Scattered Clouds,150,2013-08-19 12:53:00
7:53 AM,61.0,41.0,48,30.01,10.0,South,4.6,-,N/A,,Scattered Clouds,170,2013-08-19 13:53:00
8:53 AM,66.9,42.1,40,30.00,10.0,Calm,Calm,-,N/A,,Partly Cloudy,0,2013-08-19 14:53:00
9:53 AM,73.0,39.0,29,29.99,10.0,Calm,Calm,-,N/A,,Clear,0,2013-08-19 15:53:00
10:53 AM,79.0,36.0,21,29.95,10.0,Variable,3.5,-,N/A,,Clear,0,2013-08-19 16:53:00
11:53 AM,82.0,32.0,16,29.94,10.0,Variable,6.9,-,N/A,,Clear,0,2013-08-19 17:53:00
12:53 PM,84.9,28.9,13,29.93,10.0,NW,9.2,18.4,N/A,,Clear,310,2013-08-19 18:53:00
1:53 PM,84.0,30.9,15,29.92,10.0,Calm,Calm,-,N/A,,Scattered Clouds,0,2013-08-19 19:53:00
2:53 PM,84.9,26.1,12,29.91,10.0,Variable,3.5,-,N/A,,Partly Cloudy,0,2013-08-19 20:53:00
3:53 PM,87.1,25.0,10,29.88,10.0,NW,13.8,23.0,N/A,,Clear,320,2013-08-19 21:53:00
4:53 PM,84.9,26.1,12,29.88,10.0,NW,16.1,20.7,N/A,,Clear,320,2013-08-19 22:53:00
5:53 PM,86.0,25.0,11,29.87,10.0,North,8.1,-,N/A,,Clear,360,2013-08-19 23:53:00
6:53 PM,84.0,23.0,11,29.86,10.0,North,10.4,-,N/A,,Clear,360,2013-08-20 00:53:00
7:53 PM,75.9,24.1,15,29.86,10.0,NNE,3.5,-,N/A,,Clear,30,2013-08-20 01:53:00
8:53 PM,68.0,28.9,23,29.88,10.0,SE,8.1,-,N/A,,Clear,130,2013-08-20 02:53:00
9:53 PM,66.0,39.0,37,29.88,10.0,SSE,9.2,-,N/A,,Clear,160,2013-08-20 03:53:00
10:53 PM,64.0,39.0,40,29.86,10.0,South,11.5,-,N/A,,Clear,190,2013-08-20 04:53:00
11:53 PM,57.0,37.0,47,29.87,10.0,SW,6.9,-,N/A,,Clear,220,2013-08-20 05:53:00